sensor_id;sensor_type;location;lat;lon;timestamp;temperature;humidity
1976;DHT22;988;48.016;7.800;2023-10-19T00:01:10;14.60;99.90
1976;DHT22;988;48.016;7.800;2023-10-19T00:03:37;13.80;99.90
1976;DHT22;988;48.016;7.800;2023-10-19T00:06:02;13.70;99.90
1976;DHT22;988;48.016;7.800;2023-10-19T00:08:28;13.60;99.90
1976;DHT22;988;48.016;7.800;2023-10-19T00:11:01;14.40;99.90
1976;DHT22;988;48.016;7.800;2023-10-19T00:13:30;14.20;99.90
1976;DHT22;988;48.016;7.800;2023-10-19T00:15:55;13.40;99.90
1976;DHT22;988;48.016;7.800;2023-10-19T00:18:23;14.10;99.90
1976;DHT22;988;48.016;7.800;2023-10-19T00:20:52;13.10;99.90
1976;DHT22;988;48.016;7.800;2023-10-19T00:23:20;13.10;99.90
1976;DHT22;988;48.016;7.800;2023-10-19T00:25:56;13.40;99.90
1976;DHT22;988;48.016;7.800;2023-10-19T00:28:22;13.30;99.90
1976;DHT22;988;48.016;7.800;2023-10-19T00:30:48;13.60;99.90
1976;DHT22;988;48.016;7.800;2023-10-19T00:33:16;13.70;99.90
1976;DHT22;988;48.016;7.800;2023-10-19T00:35:46;13.40;99.90
1976;DHT22;988;48.016;7.800;2023-10-19T00:38:26;13.00;99.90
1976;DHT22;988;48.016;7.800;2023-10-19T00:41:00;13.40;99.90
1976;DHT22;988;48.016;7.800;2023-10-19T00:43:34;14.30;99.90
1976;DHT22;988;48.016;7.800;2023-10-19T00:46:08;14.20;99.90
1976;DHT22;988;48.016;7.800;2023-10-19T00:48:40;14.20;99.90
1976;DHT22;988;48.016;7.800;2023-10-19T00:51:05;15.00;99.90
1976;DHT22;988;48.016;7.800;2023-10-19T00:53:48;14.60;99.90
1976;DHT22;988;48.016;7.800;2023-10-19T00:56:14;14.30;99.90
1976;DHT22;988;48.016;7.800;2023-10-19T00:58:43;13.80;99.90
1976;DHT22;988;48.016;7.800;2023-10-19T01:01:13;14.40;99.90
1976;DHT22;988;48.016;7.800;2023-10-19T01:03:39;14.00;99.90
1976;DHT22;988;48.016;7.800;2023-10-19T01:06:05;14.20;99.90
1976;DHT22;988;48.016;7.800;2023-10-19T01:08:35;14.60;99.90
1976;DHT22;988;48.016;7.800;2023-10-19T01:11:07;14.70;99.90
1976;DHT22;988;48.016;7.800;2023-10-19T01:13:37;14.60;99.90
1976;DHT22;988;48.016;7.800;2023-10-19T01:16:03;14.30;99.90
1976;DHT22;988;48.016;7.800;2023-10-19T01:18:30;14.20;99.90
1976;DHT22;988;48.016;7.800;2023-10-19T01:20:58;14.40;99.90
1976;DHT22;988;48.016;7.800;2023-10-19T01:23:27;13.60;99.90
1976;DHT22;988;48.016;7.800;2023-10-19T01:25:57;14.10;99.90
1976;DHT22;988;48.016;7.800;2023-10-19T01:30:51;14.00;99.90
1976;DHT22;988;48.016;7.800;2023-10-19T01:33:17;14.40;99.90
1976;DHT22;988;48.016;7.800;2023-10-19T01:35:46;14.50;99.90
1976;DHT22;988;48.016;7.800;2023-10-19T01:38:31;14.50;99.90
1976;DHT22;988;48.016;7.800;2023-10-19T01:40:57;14.30;99.90
1976;DHT22;988;48.016;7.800;2023-10-19T01:43:25;14.40;99.90
1976;DHT22;988;48.016;7.800;2023-10-19T01:45:53;14.70;99.90
1976;DHT22;988;48.016;7.800;2023-10-19T01:48:22;14.20;99.90
1976;DHT22;988;48.016;7.800;2023-10-19T01:51:14;14.50;99.90
1976;DHT22;988;48.016;7.800;2023-10-19T01:53:40;14.10;99.90
1976;DHT22;988;48.016;7.800;2023-10-19T01:56:08;14.30;99.90
1976;DHT22;988;48.016;7.800;2023-10-19T01:58:38;14.00;99.90
1976;DHT22;988;48.016;7.800;2023-10-19T02:01:08;14.70;99.90
1976;DHT22;988;48.016;7.800;2023-10-19T02:03:55;14.40;99.90
1976;DHT22;988;48.016;7.800;2023-10-19T02:06:24;14.70;99.90
1976;DHT22;988;48.016;7.800;2023-10-19T02:08:59;14.20;99.90
1976;DHT22;988;48.016;7.800;2023-10-19T02:11:43;14.40;99.90
1976;DHT22;988;48.016;7.800;2023-10-19T02:14:11;14.20;99.90
1976;DHT22;988;48.016;7.800;2023-10-19T02:16:40;14.80;99.90
1976;DHT22;988;48.016;7.800;2023-10-19T02:19:06;14.90;99.90
1976;DHT22;988;48.016;7.800;2023-10-19T02:21:31;14.50;99.90
1976;DHT22;988;48.016;7.800;2023-10-19T02:23:58;14.50;99.90
1976;DHT22;988;48.016;7.800;2023-10-19T02:26:24;13.80;99.90
1976;DHT22;988;48.016;7.800;2023-10-19T02:28:53;13.80;99.90
1976;DHT22;988;48.016;7.800;2023-10-19T02:31:19;13.60;99.90
1976;DHT22;988;48.016;7.800;2023-10-19T02:33:48;14.80;99.90
1976;DHT22;988;48.016;7.800;2023-10-19T02:36:17;14.00;99.90
1976;DHT22;988;48.016;7.800;2023-10-19T02:38:45;14.30;99.90
1976;DHT22;988;48.016;7.800;2023-10-19T02:41:14;13.80;99.90
1976;DHT22;988;48.016;7.800;2023-10-19T02:43:41;14.10;99.90
1976;DHT22;988;48.016;7.800;2023-10-19T02:46:07;13.80;99.90
1976;DHT22;988;48.016;7.800;2023-10-19T02:48:32;14.30;99.90
1976;DHT22;988;48.016;7.800;2023-10-19T02:50:58;13.90;99.90
1976;DHT22;988;48.016;7.800;2023-10-19T02:53:31;14.30;99.90
1976;DHT22;988;48.016;7.800;2023-10-19T02:55:57;14.40;99.90
1976;DHT22;988;48.016;7.800;2023-10-19T02:58:25;14.30;99.90
1976;DHT22;988;48.016;7.800;2023-10-19T03:00:53;14.80;99.90
1976;DHT22;988;48.016;7.800;2023-10-19T03:03:20;14.70;99.90
1976;DHT22;988;48.016;7.800;2023-10-19T03:05:45;14.30;99.90
1976;DHT22;988;48.016;7.800;2023-10-19T03:08:11;14.70;99.90
1976;DHT22;988;48.016;7.800;2023-10-19T03:10:41;14.80;99.90
1976;DHT22;988;48.016;7.800;2023-10-19T03:13:09;14.40;99.90
1976;DHT22;988;48.016;7.800;2023-10-19T03:15:35;14.50;99.90
1976;DHT22;988;48.016;7.800;2023-10-19T03:18:01;13.90;99.90
1976;DHT22;988;48.016;7.800;2023-10-19T03:20:29;13.90;99.90
1976;DHT22;988;48.016;7.800;2023-10-19T03:22:58;14.20;99.90
1976;DHT22;988;48.016;7.800;2023-10-19T03:25:26;15.20;99.90
1976;DHT22;988;48.016;7.800;2023-10-19T03:28:10;14.90;99.90
1976;DHT22;988;48.016;7.800;2023-10-19T03:30:36;14.70;99.90
1976;DHT22;988;48.016;7.800;2023-10-19T03:33:04;14.70;99.90
1976;DHT22;988;48.016;7.800;2023-10-19T03:35:30;14.90;99.90
1976;DHT22;988;48.016;7.800;2023-10-19T03:37:55;15.50;99.90
1976;DHT22;988;48.016;7.800;2023-10-19T03:40:25;14.60;99.90
1976;DHT22;988;48.016;7.800;2023-10-19T03:42:57;15.00;99.90
1976;DHT22;988;48.016;7.800;2023-10-19T03:45:23;15.40;99.90
1976;DHT22;988;48.016;7.800;2023-10-19T03:47:50;14.60;99.90
1976;DHT22;988;48.016;7.800;2023-10-19T03:50:16;14.60;99.90
1976;DHT22;988;48.016;7.800;2023-10-19T03:52:45;14.40;99.90
1976;DHT22;988;48.016;7.800;2023-10-19T03:55:11;14.60;99.90
1976;DHT22;988;48.016;7.800;2023-10-19T03:57:38;14.70;99.90
1976;DHT22;988;48.016;7.800;2023-10-19T04:00:07;14.10;99.90
1976;DHT22;988;48.016;7.800;2023-10-19T04:02:40;14.30;99.90
1976;DHT22;988;48.016;7.800;2023-10-19T04:05:10;14.60;99.90
1976;DHT22;988;48.016;7.800;2023-10-19T04:07:39;14.50;99.90
1976;DHT22;988;48.016;7.800;2023-10-19T04:10:06;14.60;99.90
1976;DHT22;988;48.016;7.800;2023-10-19T04:12:32;14.60;99.90
1976;DHT22;988;48.016;7.800;2023-10-19T04:15:01;14.50;99.90
1976;DHT22;988;48.016;7.800;2023-10-19T04:17:47;15.20;99.90
1976;DHT22;988;48.016;7.800;2023-10-19T04:20:14;14.80;99.90
1976;DHT22;988;48.016;7.800;2023-10-19T04:22:40;15.30;99.90
1976;DHT22;988;48.016;7.800;2023-10-19T04:25:06;15.20;99.90
1976;DHT22;988;48.016;7.800;2023-10-19T04:27:31;15.30;99.90
1976;DHT22;988;48.016;7.800;2023-10-19T04:30:00;15.00;99.90
1976;DHT22;988;48.016;7.800;2023-10-19T04:32:26;14.80;99.90
1976;DHT22;988;48.016;7.800;2023-10-19T04:34:54;15.00;99.90
1976;DHT22;988;48.016;7.800;2023-10-19T04:37:20;15.30;99.90
1976;DHT22;988;48.016;7.800;2023-10-19T04:39:49;14.80;99.90
1976;DHT22;988;48.016;7.800;2023-10-19T04:42:15;15.50;99.90
1976;DHT22;988;48.016;7.800;2023-10-19T04:44:40;15.30;99.90
1976;DHT22;988;48.016;7.800;2023-10-19T04:47:06;15.20;99.90
1976;DHT22;988;48.016;7.800;2023-10-19T04:49:31;16.00;99.90
1976;DHT22;988;48.016;7.800;2023-10-19T04:51:57;15.40;99.90
1976;DHT22;988;48.016;7.800;2023-10-19T04:54:22;15.70;99.90
1976;DHT22;988;48.016;7.800;2023-10-19T04:56:48;15.10;99.90
1976;DHT22;988;48.016;7.800;2023-10-19T04:59:13;15.70;99.90
1976;DHT22;988;48.016;7.800;2023-10-19T05:01:39;15.60;99.90
1976;DHT22;988;48.016;7.800;2023-10-19T05:04:06;14.80;99.90
1976;DHT22;988;48.016;7.800;2023-10-19T05:06:31;15.50;99.90
1976;DHT22;988;48.016;7.800;2023-10-19T05:08:57;15.30;99.90
1976;DHT22;988;48.016;7.800;2023-10-19T05:11:22;15.60;99.90
1976;DHT22;988;48.016;7.800;2023-10-19T05:13:48;14.90;99.90
1976;DHT22;988;48.016;7.800;2023-10-19T05:16:13;15.30;99.90
1976;DHT22;988;48.016;7.800;2023-10-19T05:18:39;15.20;99.90
1976;DHT22;988;48.016;7.800;2023-10-19T05:21:04;14.70;99.90
1976;DHT22;988;48.016;7.800;2023-10-19T05:23:30;14.60;99.90
1976;DHT22;988;48.016;7.800;2023-10-19T05:26:03;14.70;99.90
1976;DHT22;988;48.016;7.800;2023-10-19T05:28:30;14.80;99.90
1976;DHT22;988;48.016;7.800;2023-10-19T05:30:55;14.90;99.90
1976;DHT22;988;48.016;7.800;2023-10-19T05:33:21;14.80;99.90
1976;DHT22;988;48.016;7.800;2023-10-19T05:35:48;15.40;99.90
1976;DHT22;988;48.016;7.800;2023-10-19T05:38:14;15.40;99.90
1976;DHT22;988;48.016;7.800;2023-10-19T05:40:40;15.20;99.90
1976;DHT22;988;48.016;7.800;2023-10-19T05:43:08;15.00;99.90
1976;DHT22;988;48.016;7.800;2023-10-19T05:45:34;15.00;99.90
1976;DHT22;988;48.016;7.800;2023-10-19T05:48:01;15.60;99.90
1976;DHT22;988;48.016;7.800;2023-10-19T05:50:29;14.70;99.90
1976;DHT22;988;48.016;7.800;2023-10-19T05:52:55;15.10;99.90
1976;DHT22;988;48.016;7.800;2023-10-19T05:55:20;15.10;99.90
1976;DHT22;988;48.016;7.800;2023-10-19T05:57:49;15.40;99.90
1976;DHT22;988;48.016;7.800;2023-10-19T06:00:14;15.00;99.90
1976;DHT22;988;48.016;7.800;2023-10-19T06:02:42;14.70;99.90
1976;DHT22;988;48.016;7.800;2023-10-19T06:05:09;14.80;99.90
1976;DHT22;988;48.016;7.800;2023-10-19T06:07:34;15.00;99.90
1976;DHT22;988;48.016;7.800;2023-10-19T06:10:00;15.20;99.90
1976;DHT22;988;48.016;7.800;2023-10-19T06:12:30;14.80;99.90
1976;DHT22;988;48.016;7.800;2023-10-19T06:14:55;14.40;99.90
1976;DHT22;988;48.016;7.800;2023-10-19T06:17:21;15.10;99.90
1976;DHT22;988;48.016;7.800;2023-10-19T06:19:46;14.80;99.90
1976;DHT22;988;48.016;7.800;2023-10-19T06:22:12;14.80;99.90
1976;DHT22;988;48.016;7.800;2023-10-19T06:24:41;14.80;99.90
1976;DHT22;988;48.016;7.800;2023-10-19T06:27:06;15.50;99.90
1976;DHT22;988;48.016;7.800;2023-10-19T06:29:32;15.60;99.90
1976;DHT22;988;48.016;7.800;2023-10-19T06:31:57;15.10;99.90
1976;DHT22;988;48.016;7.800;2023-10-19T06:34:23;16.00;99.90
1976;DHT22;988;48.016;7.800;2023-10-19T06:36:48;15.40;99.90
1976;DHT22;988;48.016;7.800;2023-10-19T06:39:15;15.80;99.90
1976;DHT22;988;48.016;7.800;2023-10-19T06:41:43;15.90;99.90
1976;DHT22;988;48.016;7.800;2023-10-19T06:44:08;15.40;99.90
1976;DHT22;988;48.016;7.800;2023-10-19T06:46:34;15.70;99.90
1976;DHT22;988;48.016;7.800;2023-10-19T06:49:01;15.70;99.90
1976;DHT22;988;48.016;7.800;2023-10-19T06:51:26;15.60;99.90
1976;DHT22;988;48.016;7.800;2023-10-19T06:53:52;15.80;99.90
1976;DHT22;988;48.016;7.800;2023-10-19T06:56:17;16.10;99.90
1976;DHT22;988;48.016;7.800;2023-10-19T06:58:46;16.30;99.90
1976;DHT22;988;48.016;7.800;2023-10-19T07:01:11;15.10;99.90
1976;DHT22;988;48.016;7.800;2023-10-19T07:03:38;15.90;99.90
1976;DHT22;988;48.016;7.800;2023-10-19T07:06:03;15.00;99.90
1976;DHT22;988;48.016;7.800;2023-10-19T07:08:29;14.60;99.90
1976;DHT22;988;48.016;7.800;2023-10-19T07:10:55;15.80;99.90
1976;DHT22;988;48.016;7.800;2023-10-19T07:13:20;16.50;99.90
1976;DHT22;988;48.016;7.800;2023-10-19T07:15:47;16.40;99.90
1976;DHT22;988;48.016;7.800;2023-10-19T07:18:14;16.70;99.90
1976;DHT22;988;48.016;7.800;2023-10-19T07:20:40;16.40;99.90
1976;DHT22;988;48.016;7.800;2023-10-19T07:23:08;16.40;99.90
1976;DHT22;988;48.016;7.800;2023-10-19T07:25:49;16.10;99.90
1976;DHT22;988;48.016;7.800;2023-10-19T07:28:20;16.00;99.90
1976;DHT22;988;48.016;7.800;2023-10-19T07:30:46;16.00;99.90
1976;DHT22;988;48.016;7.800;2023-10-19T07:33:12;15.90;99.90
1976;DHT22;988;48.016;7.800;2023-10-19T07:40:36;16.40;99.90
1976;DHT22;988;48.016;7.800;2023-10-19T07:43:01;17.80;99.90
1976;DHT22;988;48.016;7.800;2023-10-19T07:45:29;17.60;99.90
1976;DHT22;988;48.016;7.800;2023-10-19T07:47:56;17.80;99.90
1976;DHT22;988;48.016;7.800;2023-10-19T07:50:22;17.50;99.90
1976;DHT22;988;48.016;7.800;2023-10-19T07:52:50;17.30;99.90
1976;DHT22;988;48.016;7.800;2023-10-19T07:55:16;18.10;99.90
1976;DHT22;988;48.016;7.800;2023-10-19T07:57:42;17.50;99.90
1976;DHT22;988;48.016;7.800;2023-10-19T08:00:08;17.30;99.90
1976;DHT22;988;48.016;7.800;2023-10-19T08:02:34;17.10;99.90
1976;DHT22;988;48.016;7.800;2023-10-19T08:05:00;17.60;99.90
1976;DHT22;988;48.016;7.800;2023-10-19T08:07:28;16.90;99.90
1976;DHT22;988;48.016;7.800;2023-10-19T08:09:53;16.60;99.90
1976;DHT22;988;48.016;7.800;2023-10-19T08:12:20;16.50;99.90
1976;DHT22;988;48.016;7.800;2023-10-19T08:14:47;16.50;99.90
1976;DHT22;988;48.016;7.800;2023-10-19T08:17:14;15.70;99.90
1976;DHT22;988;48.016;7.800;2023-10-19T08:19:39;16.00;99.90
1976;DHT22;988;48.016;7.800;2023-10-19T08:22:06;15.90;99.90
1976;DHT22;988;48.016;7.800;2023-10-19T08:24:31;16.50;99.90
1976;DHT22;988;48.016;7.800;2023-10-19T08:27:00;16.50;99.90
1976;DHT22;988;48.016;7.800;2023-10-19T08:29:26;16.20;99.90
1976;DHT22;988;48.016;7.800;2023-10-19T08:31:51;15.80;99.90
1976;DHT22;988;48.016;7.800;2023-10-19T08:34:17;15.80;99.90
1976;DHT22;988;48.016;7.800;2023-10-19T08:36:42;16.60;99.90
1976;DHT22;988;48.016;7.800;2023-10-19T08:39:08;16.40;99.90
1976;DHT22;988;48.016;7.800;2023-10-19T08:41:34;16.90;99.90
1976;DHT22;988;48.016;7.800;2023-10-19T08:44:04;16.70;99.90
1976;DHT22;988;48.016;7.800;2023-10-19T08:46:40;16.70;99.90
1976;DHT22;988;48.016;7.800;2023-10-19T08:49:09;17.10;99.90
1976;DHT22;988;48.016;7.800;2023-10-19T08:51:36;17.00;99.90
1976;DHT22;988;48.016;7.800;2023-10-19T08:54:02;17.10;99.90
1976;DHT22;988;48.016;7.800;2023-10-19T08:56:29;16.80;99.90
1976;DHT22;988;48.016;7.800;2023-10-19T08:58:54;17.70;99.90
1976;DHT22;988;48.016;7.800;2023-10-19T09:01:20;17.80;99.90
1976;DHT22;988;48.016;7.800;2023-10-19T09:03:49;17.30;99.90
1976;DHT22;988;48.016;7.800;2023-10-19T09:06:15;17.30;99.90
1976;DHT22;988;48.016;7.800;2023-10-19T09:08:41;17.60;99.90
1976;DHT22;988;48.016;7.800;2023-10-19T09:11:07;17.80;99.90
1976;DHT22;988;48.016;7.800;2023-10-19T09:16:31;16.70;99.90
1976;DHT22;988;48.016;7.800;2023-10-19T09:18:57;18.20;99.90
1976;DHT22;988;48.016;7.800;2023-10-19T09:21:23;18.50;99.90
1976;DHT22;988;48.016;7.800;2023-10-19T09:23:52;18.50;99.90
1976;DHT22;988;48.016;7.800;2023-10-19T09:26:17;18.10;99.90
1976;DHT22;988;48.016;7.800;2023-10-19T09:28:46;17.80;99.90
1976;DHT22;988;48.016;7.800;2023-10-19T09:31:12;17.70;99.90
1976;DHT22;988;48.016;7.800;2023-10-19T09:33:40;17.00;99.90
1976;DHT22;988;48.016;7.800;2023-10-19T09:36:06;17.40;99.90
1976;DHT22;988;48.016;7.800;2023-10-19T09:38:59;17.20;99.90
1976;DHT22;988;48.016;7.800;2023-10-19T09:41:24;18.00;99.90
1976;DHT22;988;48.016;7.800;2023-10-19T09:43:57;17.60;99.90
1976;DHT22;988;48.016;7.800;2023-10-19T09:46:26;17.30;99.90
1976;DHT22;988;48.016;7.800;2023-10-19T09:48:54;17.20;99.90
1976;DHT22;988;48.016;7.800;2023-10-19T09:51:20;17.30;99.90
1976;DHT22;988;48.016;7.800;2023-10-19T09:53:48;17.70;99.90
1976;DHT22;988;48.016;7.800;2023-10-19T09:56:17;17.80;99.90
1976;DHT22;988;48.016;7.800;2023-10-19T09:58:46;18.20;99.90
1976;DHT22;988;48.016;7.800;2023-10-19T10:06:13;18.50;99.90
1976;DHT22;988;48.016;7.800;2023-10-19T10:08:40;18.50;99.90
1976;DHT22;988;48.016;7.800;2023-10-19T10:11:25;18.70;99.90
1976;DHT22;988;48.016;7.800;2023-10-19T10:13:55;18.80;99.90
1976;DHT22;988;48.016;7.800;2023-10-19T10:16:27;19.20;99.90
1976;DHT22;988;48.016;7.800;2023-10-19T10:18:54;18.60;99.90
1976;DHT22;988;48.016;7.800;2023-10-19T10:21:21;18.50;99.90
1976;DHT22;988;48.016;7.800;2023-10-19T10:23:48;18.50;99.90
1976;DHT22;988;48.016;7.800;2023-10-19T10:26:15;19.00;99.90
1976;DHT22;988;48.016;7.800;2023-10-19T10:28:41;19.40;99.90
1976;DHT22;988;48.016;7.800;2023-10-19T10:36:07;19.40;99.90
1976;DHT22;988;48.016;7.800;2023-10-19T10:38:33;20.60;99.90
1976;DHT22;988;48.016;7.800;2023-10-19T10:41:03;21.50;99.90
1976;DHT22;988;48.016;7.800;2023-10-19T10:46:05;22.10;99.90
1976;DHT22;988;48.016;7.800;2023-10-19T10:48:31;21.70;99.90
1976;DHT22;988;48.016;7.800;2023-10-19T10:50:58;22.40;99.90
1976;DHT22;988;48.016;7.800;2023-10-19T10:53:23;22.40;99.90
1976;DHT22;988;48.016;7.800;2023-10-19T10:55:52;22.40;99.90
1976;DHT22;988;48.016;7.800;2023-10-19T10:58:18;22.50;99.90
1976;DHT22;988;48.016;7.800;2023-10-19T11:00:44;21.20;99.90
1976;DHT22;988;48.016;7.800;2023-10-19T11:03:12;21.20;99.90
1976;DHT22;988;48.016;7.800;2023-10-19T11:05:40;21.00;99.90
1976;DHT22;988;48.016;7.800;2023-10-19T11:10:35;20.40;99.90
1976;DHT22;988;48.016;7.800;2023-10-19T11:13:02;20.70;99.90
1976;DHT22;988;48.016;7.800;2023-10-19T11:15:28;20.20;99.90
1976;DHT22;988;48.016;7.800;2023-10-19T11:17:53;20.30;99.90
1976;DHT22;988;48.016;7.800;2023-10-19T11:20:22;20.30;99.90
1976;DHT22;988;48.016;7.800;2023-10-19T11:22:48;20.10;99.90
1976;DHT22;988;48.016;7.800;2023-10-19T11:25:19;20.60;99.90
1976;DHT22;988;48.016;7.800;2023-10-19T11:27:44;20.40;99.90
1976;DHT22;988;48.016;7.800;2023-10-19T11:30:10;20.90;99.90
1976;DHT22;988;48.016;7.800;2023-10-19T11:32:37;21.20;99.90
1976;DHT22;988;48.016;7.800;2023-10-19T11:35:03;21.20;99.90
1976;DHT22;988;48.016;7.800;2023-10-19T11:37:29;20.40;99.90
1976;DHT22;988;48.016;7.800;2023-10-19T11:39:54;20.60;99.90
1976;DHT22;988;48.016;7.800;2023-10-19T11:42:20;20.80;99.90
1976;DHT22;988;48.016;7.800;2023-10-19T11:44:45;20.80;99.90
1976;DHT22;988;48.016;7.800;2023-10-19T11:47:11;20.90;99.90
1976;DHT22;988;48.016;7.800;2023-10-19T11:49:38;20.70;99.90
1976;DHT22;988;48.016;7.800;2023-10-19T11:52:07;20.10;99.90
1976;DHT22;988;48.016;7.800;2023-10-19T11:54:36;19.70;99.90
1976;DHT22;988;48.016;7.800;2023-10-19T11:57:01;19.50;99.90
1976;DHT22;988;48.016;7.800;2023-10-19T11:59:27;19.40;99.90
1976;DHT22;988;48.016;7.800;2023-10-19T12:01:53;20.10;99.90
1976;DHT22;988;48.016;7.800;2023-10-19T12:04:20;19.50;99.90
1976;DHT22;988;48.016;7.800;2023-10-19T12:06:45;19.50;99.90
1976;DHT22;988;48.016;7.800;2023-10-19T12:09:13;19.50;99.90
1976;DHT22;988;48.016;7.800;2023-10-19T12:11:43;19.70;99.90
1976;DHT22;988;48.016;7.800;2023-10-19T12:14:09;19.80;99.90
1976;DHT22;988;48.016;7.800;2023-10-19T12:16:40;19.60;99.90
1976;DHT22;988;48.016;7.800;2023-10-19T12:19:06;19.50;99.90
1976;DHT22;988;48.016;7.800;2023-10-19T12:21:34;19.80;99.90
1976;DHT22;988;48.016;7.800;2023-10-19T12:24:03;20.00;99.90
1976;DHT22;988;48.016;7.800;2023-10-19T12:26:30;18.90;99.90
1976;DHT22;988;48.016;7.800;2023-10-19T12:28:56;19.50;99.90
1976;DHT22;988;48.016;7.800;2023-10-19T12:31:23;19.40;99.90
1976;DHT22;988;48.016;7.800;2023-10-19T12:33:48;19.90;99.90
1976;DHT22;988;48.016;7.800;2023-10-19T12:36:14;19.50;99.90
1976;DHT22;988;48.016;7.800;2023-10-19T12:38:52;19.80;99.90
1976;DHT22;988;48.016;7.800;2023-10-19T12:41:18;19.80;99.90
1976;DHT22;988;48.016;7.800;2023-10-19T12:43:44;19.90;99.90
1976;DHT22;988;48.016;7.800;2023-10-19T12:46:10;19.80;99.90
1976;DHT22;988;48.016;7.800;2023-10-19T12:48:38;19.40;99.90
1976;DHT22;988;48.016;7.800;2023-10-19T12:51:03;18.00;99.90
1976;DHT22;988;48.016;7.800;2023-10-19T12:53:39;18.80;99.90
1976;DHT22;988;48.016;7.800;2023-10-19T12:56:05;18.60;99.90
1976;DHT22;988;48.016;7.800;2023-10-19T12:58:35;18.90;99.90
1976;DHT22;988;48.016;7.800;2023-10-19T13:01:00;18.40;99.90
1976;DHT22;988;48.016;7.800;2023-10-19T13:03:26;18.10;99.90
1976;DHT22;988;48.016;7.800;2023-10-19T13:05:53;18.50;99.90
1976;DHT22;988;48.016;7.800;2023-10-19T13:08:19;18.60;99.90
1976;DHT22;988;48.016;7.800;2023-10-19T13:10:47;18.80;99.90
1976;DHT22;988;48.016;7.800;2023-10-19T13:13:14;18.60;99.90
1976;DHT22;988;48.016;7.800;2023-10-19T13:15:41;18.70;99.90
1976;DHT22;988;48.016;7.800;2023-10-19T13:18:08;19.40;99.90
1976;DHT22;988;48.016;7.800;2023-10-19T13:20:35;18.60;99.90
1976;DHT22;988;48.016;7.800;2023-10-19T13:25:34;18.80;99.90
1976;DHT22;988;48.016;7.800;2023-10-19T13:28:16;19.00;99.90
1976;DHT22;988;48.016;7.800;2023-10-19T13:30:45;19.00;99.90
1976;DHT22;988;48.016;7.800;2023-10-19T13:33:12;19.10;99.90
1976;DHT22;988;48.016;7.800;2023-10-19T13:35:39;18.70;99.90
1976;DHT22;988;48.016;7.800;2023-10-19T13:38:05;19.10;99.90
1976;DHT22;988;48.016;7.800;2023-10-19T13:40:31;18.90;99.90
1976;DHT22;988;48.016;7.800;2023-10-19T13:42:57;18.60;99.90
1976;DHT22;988;48.016;7.800;2023-10-19T13:45:23;18.60;99.90
1976;DHT22;988;48.016;7.800;2023-10-19T13:47:49;19.10;99.90
1976;DHT22;988;48.016;7.800;2023-10-19T13:50:15;19.10;99.90
1976;DHT22;988;48.016;7.800;2023-10-19T13:52:43;19.10;99.90
1976;DHT22;988;48.016;7.800;2023-10-19T13:55:09;19.60;99.90
1976;DHT22;988;48.016;7.800;2023-10-19T13:57:37;19.40;99.90
1976;DHT22;988;48.016;7.800;2023-10-19T14:00:05;19.30;99.90
1976;DHT22;988;48.016;7.800;2023-10-19T14:02:33;19.20;99.90
1976;DHT22;988;48.016;7.800;2023-10-19T14:04:58;19.00;99.90
1976;DHT22;988;48.016;7.800;2023-10-19T14:07:25;19.20;99.90
1976;DHT22;988;48.016;7.800;2023-10-19T14:09:51;19.50;99.90
1976;DHT22;988;48.016;7.800;2023-10-19T14:12:17;19.40;99.90
1976;DHT22;988;48.016;7.800;2023-10-19T14:14:43;19.20;99.90
1976;DHT22;988;48.016;7.800;2023-10-19T14:17:08;19.70;99.90
1976;DHT22;988;48.016;7.800;2023-10-19T14:19:34;19.70;99.90
1976;DHT22;988;48.016;7.800;2023-10-19T14:22:00;20.00;99.90
1976;DHT22;988;48.016;7.800;2023-10-19T14:24:25;20.70;99.90
1976;DHT22;988;48.016;7.800;2023-10-19T14:26:51;19.90;99.90
1976;DHT22;988;48.016;7.800;2023-10-19T14:29:16;19.80;99.90
1976;DHT22;988;48.016;7.800;2023-10-19T14:31:42;20.00;99.90
1976;DHT22;988;48.016;7.800;2023-10-19T14:34:07;19.80;99.90
1976;DHT22;988;48.016;7.800;2023-10-19T14:36:35;19.60;99.90
1976;DHT22;988;48.016;7.800;2023-10-19T14:39:01;19.20;99.90
1976;DHT22;988;48.016;7.800;2023-10-19T14:41:26;19.20;99.90
1976;DHT22;988;48.016;7.800;2023-10-19T14:43:52;19.50;99.90
1976;DHT22;988;48.016;7.800;2023-10-19T14:46:17;19.40;99.90
1976;DHT22;988;48.016;7.800;2023-10-19T14:48:43;19.20;99.90
1976;DHT22;988;48.016;7.800;2023-10-19T14:51:10;20.00;99.90
1976;DHT22;988;48.016;7.800;2023-10-19T14:53:37;19.80;99.90
1976;DHT22;988;48.016;7.800;2023-10-19T14:56:03;20.00;99.90
1976;DHT22;988;48.016;7.800;2023-10-19T14:58:28;19.30;99.90
1976;DHT22;988;48.016;7.800;2023-10-19T15:00:54;19.10;99.90
1976;DHT22;988;48.016;7.800;2023-10-19T15:03:20;19.50;99.90
1976;DHT22;988;48.016;7.800;2023-10-19T15:05:49;19.50;99.90
1976;DHT22;988;48.016;7.800;2023-10-19T15:08:15;19.60;99.90
1976;DHT22;988;48.016;7.800;2023-10-19T15:10:41;18.30;99.90
1976;DHT22;988;48.016;7.800;2023-10-19T15:13:09;18.80;99.90
1976;DHT22;988;48.016;7.800;2023-10-19T15:15:35;18.70;99.90
1976;DHT22;988;48.016;7.800;2023-10-19T15:18:01;18.70;99.90
1976;DHT22;988;48.016;7.800;2023-10-19T15:20:29;18.90;99.90
1976;DHT22;988;48.016;7.800;2023-10-19T15:22:55;19.00;99.90
1976;DHT22;988;48.016;7.800;2023-10-19T15:25:21;18.90;99.90
1976;DHT22;988;48.016;7.800;2023-10-19T15:27:49;18.90;99.90
1976;DHT22;988;48.016;7.800;2023-10-19T15:30:15;19.30;99.90
1976;DHT22;988;48.016;7.800;2023-10-19T15:32:42;19.20;99.90
1976;DHT22;988;48.016;7.800;2023-10-19T15:35:08;18.60;99.90
1976;DHT22;988;48.016;7.800;2023-10-19T15:37:35;19.70;99.90
1976;DHT22;988;48.016;7.800;2023-10-19T15:40:01;18.80;99.90
1976;DHT22;988;48.016;7.800;2023-10-19T15:42:30;19.00;99.90
1976;DHT22;988;48.016;7.800;2023-10-19T15:44:56;18.80;99.90
1976;DHT22;988;48.016;7.800;2023-10-19T15:47:21;18.80;99.90
1976;DHT22;988;48.016;7.800;2023-10-19T15:49:49;19.00;99.90
1976;DHT22;988;48.016;7.800;2023-10-19T15:52:21;19.00;99.90
1976;DHT22;988;48.016;7.800;2023-10-19T15:54:47;18.40;99.90
1976;DHT22;988;48.016;7.800;2023-10-19T15:57:15;18.90;99.90
1976;DHT22;988;48.016;7.800;2023-10-19T15:59:41;18.60;99.90
1976;DHT22;988;48.016;7.800;2023-10-19T16:02:07;18.60;99.90
1976;DHT22;988;48.016;7.800;2023-10-19T16:04:33;18.60;99.90
1976;DHT22;988;48.016;7.800;2023-10-19T16:06:58;19.30;99.90
1976;DHT22;988;48.016;7.800;2023-10-19T16:09:24;18.80;99.90
1976;DHT22;988;48.016;7.800;2023-10-19T16:11:51;18.80;99.90
1976;DHT22;988;48.016;7.800;2023-10-19T16:14:17;19.40;99.90
1976;DHT22;988;48.016;7.800;2023-10-19T16:16:45;19.40;99.90
1976;DHT22;988;48.016;7.800;2023-10-19T16:19:14;18.90;99.90
1976;DHT22;988;48.016;7.800;2023-10-19T16:21:39;19.10;99.90
1976;DHT22;988;48.016;7.800;2023-10-19T16:24:06;19.50;99.90
1976;DHT22;988;48.016;7.800;2023-10-19T16:26:32;19.20;99.90
1976;DHT22;988;48.016;7.800;2023-10-19T16:28:58;19.30;99.90
1976;DHT22;988;48.016;7.800;2023-10-19T16:31:23;18.70;99.90
1976;DHT22;988;48.016;7.800;2023-10-19T16:33:49;18.60;99.90
1976;DHT22;988;48.016;7.800;2023-10-19T16:36:15;18.30;99.90
1976;DHT22;988;48.016;7.800;2023-10-19T16:38:41;18.60;99.90
1976;DHT22;988;48.016;7.800;2023-10-19T16:41:06;18.50;99.90
1976;DHT22;988;48.016;7.800;2023-10-19T16:43:32;18.70;99.90
1976;DHT22;988;48.016;7.800;2023-10-19T16:45:58;18.60;99.90